Time;durP1;ratioP1;P1;durP2;ratioP2;P2;SDS_P1;SDS_P2;PMS_P1;PMS_P2;Temp;Humidity;BMP_temperature;BMP_pressure;BME280_temperature;BME280_humidity;BME280_pressure;Samples;Min_cycle;Max_cycle;Signal;HPM_P1;HPM_P2
2022/04/01 00:01:11;;;;;;;6.05;3.45;;;;;;;3.20;41.96;99722.84;7393945;19;20019;-67
2022/04/01 00:03:42;;;;;;;9.20;4.35;;;;;;;3.19;41.76;99728.03;7393648;19;20015;-67
2022/04/01 00:06:10;;;;;;;8.40;3.58;;;;;;;3.18;42.04;99721.97;7395795;19;20018;-67
2022/04/01 00:08:38;;;;;;;7.55;4.20;;;;;;;3.20;41.72;99716.81;7393559;19;20014;-67
2022/04/01 00:11:06;;;;;;;11.02;3.83;;;;;;;3.19;41.66;99715.09;7394890;19;20419;-67
2022/04/01 00:13:34;;;;;;;6.15;3.47;;;;;;;3.22;41.62;99715.03;7394262;19;20031;-67
2022/04/01 00:16:03;;;;;;;7.00;3.80;;;;;;;3.22;41.19;99718.50;7393417;19;20473;-66
2022/04/01 00:18:31;;;;;;;5.22;3.45;;;;;;;3.23;41.30;99716.78;7395264;19;20018;-67
2022/04/01 00:21:02;;;;;;;8.63;4.00;;;;;;;3.23;40.02;99721.94;7392456;19;20024;-66
2022/04/01 00:23:31;;;;;;;9.25;4.10;;;;;;;3.23;40.91;99711.59;7394511;19;20018;-67
2022/04/01 00:25:59;;;;;;;7.80;3.80;;;;;;;3.23;40.08;99717.63;7394896;19;20015;-67
2022/04/01 00:28:27;;;;;;;7.00;3.85;;;;;;;3.24;38.99;99726.28;7394708;19;20018;-67
2022/04/01 00:30:56;;;;;;;8.15;3.92;;;;;;;3.21;39.00;99721.09;7393020;19;20029;-67
2022/04/01 00:33:24;;;;;;;6.10;4.07;;;;;;;3.18;39.13;99727.16;7392608;19;20015;-67
2022/04/01 00:35:52;;;;;;;6.90;3.55;;;;;;;3.17;38.81;99728.06;7392284;19;20032;-67
2022/04/01 00:38:23;;;;;;;6.55;3.58;;;;;;;3.15;38.16;99726.34;7394537;19;20015;-67
2022/04/01 00:40:51;;;;;;;7.80;3.60;;;;;;;3.10;38.79;99727.22;7392971;19;20019;-67
2022/04/01 00:43:19;;;;;;;5.25;3.38;;;;;;;3.12;37.87;99728.94;7393751;19;20010;-67
2022/04/01 00:45:48;;;;;;;6.05;3.97;;;;;;;3.07;37.47;99727.25;7392397;19;20018;-67
2022/04/01 00:48:17;;;;;;;6.45;3.30;;;;;;;3.03;37.04;99720.38;7392292;19;20041;-67
2022/04/01 00:50:45;;;;;;;6.03;3.75;;;;;;;3.01;37.87;99723.84;7394165;19;20011;-67
2022/04/01 00:53:13;;;;;;;7.38;3.78;;;;;;;3.00;37.64;99723.00;7394999;19;20014;-67
2022/04/01 00:55:44;;;;;;;9.13;4.20;;;;;;;2.99;37.96;99729.03;7399068;19;20018;-67
2022/04/01 00:58:12;;;;;;;7.13;3.15;;;;;;;2.97;37.52;99725.63;7398504;19;20517;-67
2022/04/01 01:00:41;;;;;;;7.20;3.40;;;;;;;2.93;37.09;99717.00;7400933;19;20478;-67
2022/04/01 01:03:09;;;;;;;6.97;3.70;;;;;;;2.93;37.63;99717.00;7400649;19;20018;-67
2022/04/01 01:05:38;;;;;;;7.40;3.63;;;;;;;2.91;37.70;99710.09;7401242;19;20014;-67
2022/04/01 01:08:09;;;;;;;7.57;3.78;;;;;;;2.91;37.64;99707.50;7401105;19;20036;-67
2022/04/01 01:10:37;;;;;;;9.60;3.63;;;;;;;2.90;37.42;99713.56;7401479;19;20018;-67
2022/04/01 01:13:08;;;;;;;6.80;3.78;;;;;;;2.90;37.85;99708.38;7401926;19;20039;-67
2022/04/01 01:15:37;;;;;;;7.85;3.47;;;;;;;2.88;37.88;99713.59;7399128;19;20035;-67
2022/04/01 01:18:05;;;;;;;5.53;3.47;;;;;;;2.88;38.18;99717.88;7398207;19;20018;-67
2022/04/01 01:20:34;;;;;;;7.60;3.97;;;;;;;2.88;38.08;99723.06;7399168;19;20014;-67
2022/04/01 01:23:02;;;;;;;6.95;3.35;;;;;;;2.85;38.11;99710.16;7400190;19;20032;-67
2022/04/01 01:25:36;;;;;;;6.80;3.40;;;;;;;2.85;38.15;99710.16;7400679;19;20035;-68
2022/04/01 01:28:05;;;;;;;5.05;3.53;;;;;;;2.82;38.19;99713.63;7400969;19;20035;-67
2022/04/01 01:30:34;;;;;;;6.75;3.80;;;;;;;2.80;38.29;99715.34;7400673;19;20026;-66
2022/04/01 01:33:03;;;;;;;8.05;3.97;;;;;;;2.79;38.14;99707.59;7400055;19;20034;-65
2022/04/01 01:35:32;;;;;;;6.10;3.67;;;;;;;2.76;38.16;99704.13;7398444;19;20091;-65
2022/04/01 01:38:01;;;;;;;8.93;3.80;;;;;;;2.74;38.07;99705.03;7397829;19;20030;-65
2022/04/01 01:40:32;;;;;;;7.47;3.60;;;;;;;2.72;38.20;99707.63;7400174;19;20026;-66
2022/04/01 01:43:00;;;;;;;6.38;3.58;;;;;;;2.71;38.35;99707.66;7397308;19;20497;-66
2022/04/01 01:45:29;;;;;;;6.78;3.47;;;;;;;2.70;38.10;99705.91;7397273;19;20376;-66
2022/04/01 01:47:58;;;;;;;8.88;3.95;;;;;;;2.68;38.31;99705.94;7399928;19;20022;-66
2022/04/01 01:55:50;;;;;;;4.38;3.40;;;;;;;2.66;38.45;99705.06;7397806;19;20391;-66
2022/04/01 01:58:19;;;;;;;7.18;3.88;;;;;;;2.63;38.47;99697.34;7400049;19;20018;-67
2022/04/01 02:00:47;;;;;;;6.90;3.72;;;;;;;2.61;38.47;99694.72;7399690;19;20035;-66
2022/04/01 02:03:15;;;;;;;6.20;4.07;;;;;;;2.59;38.74;99695.59;7396874;19;20018;-66
2022/04/01 02:05:43;;;;;;;7.97;3.72;;;;;;;2.61;38.54;99706.84;7399170;19;20015;-66
2022/04/01 02:08:11;;;;;;;8.30;3.45;;;;;;;2.60;38.58;99705.97;7398858;19;20509;-66
2022/04/01 02:10:39;;;;;;;7.63;3.58;;;;;;;2.55;38.67;99699.97;7399095;19;20023;-66
2022/04/01 02:13:12;;;;;;;6.32;3.47;;;;;;;2.57;38.79;99707.72;7398505;19;20019;-66
2022/04/01 02:15:41;;;;;;;5.13;3.42;;;;;;;2.57;38.89;99705.97;7398103;19;20019;-67
2022/04/01 02:18:10;;;;;;;6.63;3.70;;;;;;;2.58;38.93;99701.69;7397941;19;20388;-67
2022/04/01 02:20:38;;;;;;;6.82;3.85;;;;;;;2.54;38.39;99703.44;7398085;19;20010;-66
2022/04/01 02:23:06;;;;;;;6.50;3.45;;;;;;;2.52;39.04;99706.91;7397786;19;20480;-66
2022/04/01 02:25:34;;;;;;;7.80;3.90;;;;;;;2.52;38.91;99704.31;7397265;19;20035;-66
2022/04/01 02:28:04;;;;;;;4.90;3.17;;;;;;;2.49;39.00;99696.53;7398072;19;20510;-67
2022/04/01 02:30:41;;;;;;;4.80;3.30;;;;;;;2.49;39.09;99714.66;7396286;19;20018;-66
2022/04/01 02:33:09;;;;;;;5.95;3.90;;;;;;;2.46;38.94;99699.16;7397919;19;20022;-66
2022/04/01 02:35:37;;;;;;;5.85;3.85;;;;;;;2.41;38.84;99701.75;7396400;19;20027;-66
2022/04/01 02:38:06;;;;;;;8.98;3.92;;;;;;;2.37;39.19;99705.25;7395526;19;20014;-66
2022/04/01 02:40:34;;;;;;;9.85;3.85;;;;;;;2.30;39.15;99695.78;7398080;19;20022;-67
2022/04/01 02:43:09;;;;;;;6.43;3.72;;;;;;;2.27;39.50;99704.41;7397564;19;20014;-66
2022/04/01 02:45:40;;;;;;;7.75;4.45;;;;;;;2.23;39.78;99697.53;7398046;19;20047;-66
2022/04/01 02:48:09;;;;;;;9.85;4.10;;;;;;;2.20;39.96;99700.13;7396264;19;20577;-66
2022/04/01 02:50:38;;;;;;;6.65;3.97;;;;;;;2.19;40.37;99706.19;7397768;19;20018;-66
2022/04/01 02:53:06;;;;;;;6.93;3.80;;;;;;;2.17;40.18;99713.09;7397433;19;20018;-66
2022/04/01 02:55:34;;;;;;;6.85;4.18;;;;;;;2.12;40.12;99715.69;7395078;19;20509;-66
2022/04/01 02:58:02;;;;;;;7.15;3.50;;;;;;;2.09;40.26;99706.22;7397302;19;20036;-66
2022/04/01 03:00:30;;;;;;;9.27;4.22;;;;;;;2.05;40.47;99719.19;7397306;19;20023;-67
2022/04/01 03:03:01;;;;;;;6.03;3.70;;;;;;;2.01;41.05;99723.50;7396902;19;20035;-66
2022/04/01 03:05:32;;;;;;;8.82;4.03;;;;;;;1.96;41.32;99720.06;7395804;19;20035;-66
2022/04/01 03:08:00;;;;;;;7.18;3.35;;;;;;;1.89;41.24;99715.78;7397803;19;20078;-67
2022/04/01 03:10:30;;;;;;;6.53;3.67;;;;;;;1.86;41.72;99727.00;7396958;19;20026;-67
2022/04/01 03:12:59;;;;;;;6.88;3.97;;;;;;;1.82;41.37;99714.06;7396826;19;20018;-66
2022/04/01 03:15:28;;;;;;;5.88;4.07;;;;;;;1.80;41.50;99716.66;7395358;19;20035;-67
2022/04/01 03:17:57;;;;;;;7.03;3.90;;;;;;;1.76;41.37;99713.22;7394679;19;20026;-67
2022/04/01 03:20:29;;;;;;;7.05;3.72;;;;;;;1.75;41.24;99723.56;7394496;19;20021;-66
2022/04/01 03:22:57;;;;;;;5.78;4.22;;;;;;;1.73;41.14;99718.41;7396782;19;20019;-67
2022/04/01 03:25:32;;;;;;;8.65;3.95;;;;;;;1.72;41.13;99727.03;7396591;19;20044;-66
2022/04/01 03:28:01;;;;;;;7.15;3.92;;;;;;;1.71;40.98;99720.13;7397231;19;20110;-67
2022/04/01 03:30:30;;;;;;;7.80;4.07;;;;;;;1.69;40.78;99724.41;7395820;19;20485;-66
2022/04/01 03:32:58;;;;;;;5.70;3.60;;;;;;;1.69;40.86;99721.00;7395863;19;20018;-66
2022/04/01 03:35:29;;;;;;;6.68;4.15;;;;;;;1.70;41.01;99720.13;7394870;19;20501;-66
2022/04/01 03:37:57;;;;;;;6.43;4.18;;;;;;;1.70;40.79;99725.31;7394984;19;20023;-66
2022/04/01 03:40:27;;;;;;;6.85;3.67;;;;;;;1.71;40.91;99727.88;7395888;19;20027;-66
2022/04/01 03:42:56;;;;;;;6.30;4.35;;;;;;;1.72;40.66;99728.72;7395624;19;20025;-66
2022/04/01 03:45:24;;;;;;;7.18;4.55;;;;;;;1.71;40.49;99735.63;7395534;19;20480;-67
2022/04/01 03:47:55;;;;;;;7.75;4.43;;;;;;;1.71;40.44;99729.63;7395652;19;20033;-66
2022/04/01 03:50:33;;;;;;;7.45;4.13;;;;;;;1.68;39.77;99729.59;7396143;19;20035;-66
2022/04/01 03:53:08;;;;;;;7.07;4.00;;;;;;;1.66;40.29;99739.97;7393794;19;20022;-66
2022/04/01 03:55:39;;;;;;;7.72;4.57;;;;;;;1.63;40.30;99735.66;7395005;19;20014;-66
2022/04/01 03:58:13;;;;;;;6.25;4.15;;;;;;;1.62;40.35;99731.34;7395423;19;20037;-67
2022/04/01 04:00:42;;;;;;;;;;;;;;;1.61;40.24;99734.78;7396604;19;20025;-66
2022/04/01 04:03:13;;;;;;;7.97;4.25;;;;;;;1.61;40.70;99734.78;7393196;19;19990;-66
2022/04/01 04:05:45;;;;;;;7.47;4.07;;;;;;;1.61;40.72;99733.94;7394855;19;20028;-66
2022/04/01 04:08:14;;;;;;;7.95;4.18;;;;;;;1.59;40.59;99735.66;7395211;19;20077;-66
2022/04/01 04:10:42;;;;;;;7.57;4.22;;;;;;;1.57;40.64;99747.75;7394740;19;20026;-66
2022/04/01 04:13:13;;;;;;;7.15;4.00;;;;;;;1.54;40.38;99738.25;7394181;19;20015;-66
2022/04/01 04:15:47;;;;;;;7.00;4.53;;;;;;;1.52;40.72;99728.78;7392467;19;20381;-66
2022/04/01 04:18:18;;;;;;;6.95;4.57;;;;;;;1.49;40.49;99716.69;7394724;19;20082;-66
2022/04/01 04:20:58;;;;;;;8.82;4.70;;;;;;;1.48;40.43;99732.22;7393067;19;20010;-67
2022/04/01 04:23:27;;;;;;;9.98;5.00;;;;;;;1.45;40.85;99723.63;7393216;19;20035;-67
2022/04/01 04:26:03;;;;;;;10.60;4.60;;;;;;;1.39;40.42;99739.13;7389715;19;20015;-67
2022/04/01 04:28:37;;;;;;;6.25;4.40;;;;;;;1.38;40.39;99739.97;7394436;19;20366;-67
2022/04/01 04:31:07;;;;;;;6.70;4.38;;;;;;;1.34;40.44;99733.09;7399074;19;20018;-67
2022/04/01 04:33:36;;;;;;;8.85;4.22;;;;;;;1.33;40.69;99741.72;7396348;19;20032;-67
2022/04/01 04:36:10;;;;;;;9.68;4.80;;;;;;;1.31;40.61;99746.00;7397260;19;20041;-67
2022/04/01 04:38:40;;;;;;;8.10;4.80;;;;;;;1.31;41.02;99746.00;7399359;19;20020;-67
2022/04/01 04:41:11;;;;;;;8.73;5.65;;;;;;;1.29;40.63;99745.16;7397049;19;20026;-67
2022/04/01 04:43:44;;;;;;;7.35;4.65;;;;;;;1.28;40.78;99749.44;7396969;19;20019;-67
2022/04/01 04:46:13;;;;;;;7.80;4.63;;;;;;;1.28;40.89;99746.03;7397113;19;20018;-67
2022/04/01 04:48:43;;;;;;;7.20;4.57;;;;;;;1.27;40.85;99755.47;7398431;19;20104;-67
2022/04/01 04:51:14;;;;;;;9.90;5.25;;;;;;;1.25;40.59;99762.38;7396484;19;20026;-67
2022/04/01 04:53:44;;;;;;;9.45;5.35;;;;;;;1.24;40.98;99767.53;7396323;19;20019;-67
2022/04/01 04:56:13;;;;;;;8.05;5.18;;;;;;;1.24;41.04;99767.53;7396152;19;20033;-66
2022/04/01 04:58:43;;;;;;;8.63;4.85;;;;;;;1.21;40.80;99765.81;7395439;19;20035;-66
2022/04/01 05:01:21;;;;;;;6.93;4.82;;;;;;;1.22;41.02;99764.94;7396985;19;20019;-67
2022/04/01 05:04:01;;;;;;;9.48;4.97;;;;;;;1.22;40.89;99767.53;7395578;19;20019;-68
2022/04/01 05:06:36;;;;;;;8.43;4.30;;;;;;;1.21;41.05;99763.22;7397594;19;20036;-67
2022/04/01 05:09:13;;;;;;;6.85;4.53;;;;;;;1.20;41.01;99768.41;7398155;19;20108;-67
2022/04/01 05:11:47;;;;;;;9.18;5.13;;;;;;;1.19;40.67;99779.59;7399428;19;20019;-67
2022/04/01 05:14:38;;;;;;;5.70;4.55;;;;;;;1.16;40.96;99777.84;7396333;19;20047;-67
2022/04/01 05:17:10;;;;;;;11.02;6.03;;;;;;;1.17;41.17;99781.31;7394967;19;20094;-65
2022/04/01 05:19:42;;;;;;;14.10;7.53;;;;;;;1.17;41.02;99783.91;7395668;19;20090;-67
2022/04/01 05:22:24;;;;;;;9.82;4.88;;;;;;;1.16;41.10;99783.03;6270668;19;22103170;-67
2022/04/01 05:25:03;;;;;;;7.40;4.78;;;;;;;1.16;41.19;99788.19;7397188;19;20035;-66
2022/04/01 05:27:35;;;;;;;9.60;4.72;;;;;;;1.18;41.33;99795.97;7397507;19;20036;-66
2022/04/01 05:30:12;;;;;;;8.35;4.55;;;;;;;1.20;41.15;99794.22;7400210;19;20031;-67
2022/04/01 05:32:43;;;;;;;9.95;4.78;;;;;;;1.20;41.28;99799.41;7398581;19;20086;-67
2022/04/01 05:35:12;;;;;;;7.53;4.90;;;;;;;1.20;41.14;99799.41;7397354;19;20510;-68
2022/04/01 05:37:44;;;;;;;7.50;4.53;;;;;;;1.21;41.24;99811.47;7396713;19;20011;-67
2022/04/01 05:40:15;;;;;;;8.85;5.13;;;;;;;1.23;41.24;99807.19;7397776;19;20429;-67
2022/04/01 05:42:43;;;;;;;8.23;4.38;;;;;;;1.25;41.13;99808.03;7399205;19;20018;-67
2022/04/01 05:45:13;;;;;;;14.57;4.97;;;;;;;1.27;41.27;99816.66;7399041;19;20039;-67
2022/04/01 05:47:41;;;;;;;9.73;4.90;;;;;;;1.26;41.40;99817.50;7397212;19;20022;-67
2022/04/01 05:50:12;;;;;;;7.65;4.65;;;;;;;1.27;41.22;99817.50;7399486;19;20078;-66
2022/04/01 05:52:43;;;;;;;8.35;4.95;;;;;;;1.29;41.35;99820.09;7399772;19;20018;-67
2022/04/01 05:55:12;;;;;;;7.70;4.55;;;;;;;1.29;41.49;99826.13;7399883;19;20039;-67
2022/04/01 05:57:40;;;;;;;5.53;4.50;;;;;;;1.29;41.61;99825.28;7397169;19;20029;-66
2022/04/01 06:00:12;;;;;;;9.50;4.85;;;;;;;1.29;41.36;99827.84;7399407;19;20086;-67
2022/04/01 06:02:56;;;;;;;9.98;4.40;;;;;;;1.30;41.45;99832.13;7399727;19;20037;-67
2022/04/01 06:05:30;;;;;;;6.85;4.75;;;;;;;1.31;41.43;99831.28;7399788;19;20023;-67
2022/04/01 06:08:08;;;;;;;7.47;4.93;;;;;;;1.35;41.61;99835.59;7399897;19;20014;-68
2022/04/01 06:10:43;;;;;;;7.82;4.50;;;;;;;1.36;41.47;99832.16;7399329;19;20029;-67
2022/04/01 06:13:22;;;;;;;8.30;4.43;;;;;;;1.35;41.35;99833.00;7398654;19;20014;-67
2022/04/01 06:16:04;;;;;;;7.57;4.68;;;;;;;1.36;41.52;99831.31;7398181;19;20078;-67
2022/04/01 06:18:44;;;;;;;10.20;4.95;;;;;;;1.36;41.22;99837.31;7396862;19;20022;-67
2022/04/01 06:21:18;;;;;;;6.43;4.57;;;;;;;1.35;41.31;99840.75;7396948;19;20013;-67
2022/04/01 06:24:05;;;;;;;7.50;4.35;;;;;;;1.37;41.40;99846.81;7397070;19;20431;-66
2022/04/01 06:26:37;;;;;;;8.13;3.75;;;;;;;1.39;41.61;99857.13;7398577;19;20022;-68
2022/04/01 06:29:18;;;;;;;8.75;4.72;;;;;;;1.41;41.45;99847.69;7396513;19;20019;-67
2022/04/01 06:31:52;;;;;;;6.93;4.55;;;;;;;1.43;41.45;99846.81;7398118;19;20026;-67
2022/04/01 06:34:25;;;;;;;9.32;4.18;;;;;;;1.46;41.32;99849.41;7395876;19;20053;-67
2022/04/01 06:36:56;;;;;;;8.48;4.28;;;;;;;1.46;41.37;99848.53;7395905;19;20023;-67
2022/04/01 06:39:36;;;;;;;7.82;4.03;;;;;;;1.47;41.56;99850.28;7395135;19;20027;-67
2022/04/01 06:42:07;;;;;;;8.30;4.40;;;;;;;1.50;41.49;99845.09;7395612;19;20015;-67
2022/04/01 06:44:36;;;;;;;5.60;3.90;;;;;;;1.56;41.74;99850.28;7395617;19;20014;-67
2022/04/01 06:47:04;;;;;;;9.48;5.10;;;;;;;1.63;41.65;99858.88;7397286;19;20035;-67
2022/04/01 06:49:32;;;;;;;5.55;3.75;;;;;;;1.68;41.27;99862.38;7396789;19;20431;-70
2022/04/01 06:52:02;;;;;;;7.68;4.53;;;;;;;1.72;41.38;99858.03;7394257;19;20078;-67
2022/04/01 06:54:33;;;;;;;5.05;3.63;;;;;;;1.75;41.19;99865.81;7395381;19;20027;-68
2022/04/01 06:57:01;;;;;;;10.32;4.40;;;;;;;1.77;41.03;99857.19;7396367;19;20014;-67
2022/04/01 06:59:29;;;;;;;7.60;3.88;;;;;;;1.78;40.62;99856.31;7397100;19;20036;-66
2022/04/01 07:01:57;;;;;;;7.05;4.15;;;;;;;1.79;41.04;99858.06;7395219;19;20018;-67
2022/04/01 07:04:25;;;;;;;6.97;3.72;;;;;;;1.78;40.96;99858.91;7395431;19;20039;-67
2022/04/01 07:06:55;;;;;;;8.80;4.40;;;;;;;1.81;41.14;99865.81;7395364;19;20079;-68
2022/04/01 07:09:24;;;;;;;9.80;4.38;;;;;;;1.82;41.01;99871.84;7397349;19;20022;-68
2022/04/01 07:11:55;;;;;;;6.38;3.90;;;;;;;1.84;40.95;99867.53;7396321;19;20014;-67
2022/04/01 07:14:23;;;;;;;7.22;3.90;;;;;;;1.88;40.97;99877.00;7395247;19;20018;-67
2022/04/01 07:16:51;;;;;;;6.25;3.80;;;;;;;1.91;40.77;99875.28;7394100;19;20069;-68
2022/04/01 07:19:19;;;;;;;7.35;3.83;;;;;;;1.95;40.90;99870.97;7396696;19;20014;-68
2022/04/01 07:21:47;;;;;;;9.63;4.32;;;;;;;1.99;40.96;99870.09;7394663;19;20014;-69
2022/04/01 07:24:15;;;;;;;10.82;5.28;;;;;;;2.05;40.70;99864.06;7395728;19;20070;-68
2022/04/01 07:26:44;;;;;;;8.80;3.95;;;;;;;2.08;40.71;99872.66;7396537;19;20380;-68
2022/04/01 07:29:16;;;;;;;7.60;4.38;;;;;;;2.10;40.33;99870.09;7397352;19;20019;-68
2022/04/01 07:34:30;;;;;;;5.05;3.55;;;;;;;2.15;40.54;99859.72;7393614;19;20015;-66
2022/04/01 07:36:58;;;;;;;7.15;4.25;;;;;;;2.18;40.06;99870.09;7392981;19;20417;-67
2022/04/01 07:39:26;;;;;;;7.10;3.53;;;;;;;2.20;40.41;99869.22;7395235;19;20018;-66
2022/04/01 07:41:55;;;;;;;6.43;3.75;;;;;;;2.24;40.33;99877.84;7393439;19;20035;-66
2022/04/01 07:44:26;;;;;;;5.53;3.25;;;;;;;2.22;40.13;99877.84;7394348;19;20035;-67
2022/04/01 07:46:54;;;;;;;7.35;3.58;;;;;;;2.27;40.23;99877.84;7395995;19;20021;-67
2022/04/01 07:49:23;;;;;;;5.97;3.67;;;;;;;2.26;40.17;99870.94;7395645;19;20042;-68
2022/04/01 07:51:51;;;;;;;4.72;3.85;;;;;;;2.32;40.41;99877.84;7395537;19;20031;-66
2022/04/01 07:54:19;;;;;;;10.45;4.00;;;;;;;2.37;40.51;99894.22;7393694;19;20090;-67
2022/04/01 07:56:47;;;;;;;6.63;3.70;;;;;;;2.44;40.43;99889.03;7394516;19;20023;-68
2022/04/01 07:59:19;;;;;;;6.80;4.10;;;;;;;2.52;40.36;99885.56;7392866;19;20419;-68
2022/04/01 08:01:49;;;;;;;8.90;3.60;;;;;;;2.61;39.76;99893.28;7395194;19;20022;-68
2022/04/01 08:04:18;;;;;;;7.97;3.97;;;;;;;2.67;40.00;99887.25;7393842;19;20022;-68
2022/04/01 08:06:46;;;;;;;6.20;3.50;;;;;;;2.70;40.03;99895.00;7395013;19;20406;-67
2022/04/01 08:09:14;;;;;;;6.35;3.55;;;;;;;2.75;40.03;99888.91;7394916;19;20035;-68
2022/04/01 08:11:42;;;;;;;5.13;3.22;;;;;;;2.83;39.87;99895.81;7392985;19;20078;-67
2022/04/01 08:14:12;;;;;;;4.65;3.40;;;;;;;2.89;39.97;99891.50;7393968;19;20014;-67
2022/04/01 08:16:40;;;;;;;10.18;2.97;;;;;;;2.99;39.93;99897.47;7393911;19;20123;-67
2022/04/01 08:19:11;;;;;;;6.65;3.67;;;;;;;3.07;39.76;99895.72;7393150;19;20066;-67
2022/04/01 08:21:39;;;;;;;4.97;3.08;;;;;;;3.14;39.77;99904.31;7392535;19;20066;-68
2022/04/01 08:24:09;;;;;;;5.93;3.45;;;;;;;3.20;39.73;99901.69;7392155;19;20482;-67
2022/04/01 08:26:37;;;;;;;9.40;3.08;;;;;;;3.26;39.53;99903.38;7394207;19;20018;-67
2022/04/01 08:29:05;;;;;;;6.13;3.05;;;;;;;3.35;39.64;99910.25;7394021;19;20019;-66
2022/04/01 08:31:34;;;;;;;6.40;3.30;;;;;;;3.40;39.76;99909.38;7393920;19;20018;-67
2022/04/01 08:34:02;;;;;;;4.80;3.03;;;;;;;3.41;39.99;99907.63;7392894;19;20018;-67
2022/04/01 08:36:33;;;;;;;6.30;2.95;;;;;;;3.47;39.77;99915.38;7393115;19;20035;-67
2022/04/01 08:39:01;;;;;;;6.93;3.30;;;;;;;3.52;39.48;99916.22;7391634;19;20019;-67
2022/04/01 08:41:29;;;;;;;6.53;3.40;;;;;;;3.57;39.41;99916.19;7393828;19;20018;-67
2022/04/01 08:43:58;;;;;;;4.32;3.10;;;;;;;3.61;39.10;99910.09;7392004;19;20015;-66
2022/04/01 08:46:26;;;;;;;6.85;2.80;;;;;;;3.60;39.30;99892.81;7394183;19;20078;-67
2022/04/01 08:48:55;;;;;;;6.25;3.42;;;;;;;3.73;39.42;99915.22;7393755;19;20019;-67
2022/04/01 08:51:23;;;;;;;6.15;3.15;;;;;;;3.82;39.25;99916.88;7394155;19;20022;-67
2022/04/01 08:53:53;;;;;;;8.07;3.25;;;;;;;3.91;39.08;99915.94;7394638;19;20022;-68
2022/04/01 08:56:22;;;;;;;4.85;3.05;;;;;;;3.98;39.08;99919.34;7393978;19;20022;-67
2022/04/01 08:58:51;;;;;;;5.90;3.03;;;;;;;4.07;39.00;99914.09;7393644;19;20023;-68
2022/04/01 09:01:19;;;;;;;5.10;2.70;;;;;;;4.14;38.94;99912.31;7393245;19;20078;-67
2022/04/01 09:03:47;;;;;;;5.50;3.30;;;;;;;4.20;38.61;99902.72;7392613;19;20019;-67
2022/04/01 09:06:16;;;;;;;5.20;3.35;;;;;;;4.29;37.37;99917.34;7393159;19;20557;-66
2022/04/01 09:08:45;;;;;;;8.05;2.80;;;;;;;4.37;38.16;99920.75;7393429;19;20018;-66
2022/04/01 09:11:19;;;;;;;5.68;3.33;;;;;;;4.45;37.65;99912.88;7394092;19;20018;-67
2022/04/01 09:13:52;;;;;;;5.97;2.95;;;;;;;4.53;37.14;99905.88;7394059;19;20359;-68
2022/04/01 09:16:31;;;;;;;8.43;3.53;;;;;;;4.60;36.38;99917.06;7400638;19;20018;-67
2022/04/01 09:19:00;;;;;;;8.35;2.85;;;;;;;4.61;36.46;99918.78;7397711;19;20070;-67
2022/04/01 09:21:36;;;;;;;6.47;3.25;;;;;;;4.66;36.85;99918.72;7396430;19;20007;-67
2022/04/01 09:24:05;;;;;;;4.10;3.00;;;;;;;4.75;36.75;99926.41;7398526;19;20512;-67
2022/04/01 09:26:38;;;;;;;8.55;3.03;;;;;;;4.85;35.62;99916.78;7399982;19;20033;-68
2022/04/01 09:29:07;;;;;;;6.50;2.75;;;;;;;4.92;34.79;99926.25;7399939;19;20019;-68
2022/04/01 09:31:38;;;;;;;6.45;2.80;;;;;;;5.00;36.07;99921.78;7399536;19;20023;-68
2022/04/01 09:34:09;;;;;;;4.88;2.20;;;;;;;5.06;35.36;99932.13;7397351;19;20038;-68
2022/04/01 09:36:41;;;;;;;5.32;2.25;;;;;;;5.08;34.70;99929.53;7399525;19;20037;-68
2022/04/01 09:39:10;;;;;;;6.22;2.50;;;;;;;5.16;34.04;99919.03;7399466;19;20434;-66
2022/04/01 09:41:43;;;;;;;5.30;2.92;;;;;;;5.21;33.25;99920.69;7399344;19;20027;-67
2022/04/01 09:44:15;;;;;;;6.90;2.83;;;;;;;5.27;33.70;99924.94;7396319;19;20477;-67
2022/04/01 09:46:46;;;;;;;8.90;2.30;;;;;;;5.31;33.13;99915.38;7397170;19;20117;-67
2022/04/01 09:49:15;;;;;;;6.93;2.92;;;;;;;5.35;33.40;99919.66;7400002;19;20070;-67
2022/04/01 09:51:45;;;;;;;5.32;2.63;;;;;;;5.38;32.02;99914.38;7399566;19;20022;-67
2022/04/01 09:54:13;;;;;;;3.58;2.30;;;;;;;5.42;32.99;99921.28;7397744;19;20011;-66
2022/04/01 09:56:47;;;;;;;5.15;2.67;;;;;;;5.48;32.65;99928.97;7400579;19;20135;-67
2022/04/01 09:59:17;;;;;;;6.33;2.57;;;;;;;5.49;30.97;99909.91;7398384;19;20018;-66
2022/04/01 10:01:46;;;;;;;8.60;2.97;;;;;;;5.54;32.16;99909.84;7398728;19;20031;-67
2022/04/01 10:04:15;;;;;;;3.05;2.38;;;;;;;5.60;31.61;99924.50;7396257;19;20025;-69
2022/04/01 10:06:44;;;;;;;6.97;2.65;;;;;;;5.62;30.26;99935.75;7397466;19;20014;-65
2022/04/01 10:09:14;;;;;;;3.40;2.33;;;;;;;5.64;31.72;99926.19;7399436;19;20018;-69
2022/04/01 10:11:46;;;;;;;5.10;2.78;;;;;;;5.67;31.07;99913.13;7396306;19;20111;-69
2022/04/01 10:14:18;;;;;;;7.68;2.47;;;;;;;5.74;31.45;99929.50;7396800;19;20506;-69
2022/04/01 10:16:48;;;;;;;5.43;2.38;;;;;;;5.79;30.42;99922.50;7398612;19;20023;-68
2022/04/01 10:19:24;;;;;;;4.68;2.60;;;;;;;5.77;28.90;99919.91;7395784;19;20029;-69
2022/04/01 10:21:59;;;;;;;3.70;2.45;;;;;;;5.82;29.19;99928.50;7395877;19;20014;-67
2022/04/01 10:24:37;;;;;;;3.28;2.00;;;;;;;5.91;30.14;99930.09;7395586;19;20078;-67
2022/04/01 10:27:21;;;;;;;4.10;2.42;;;;;;;5.99;29.57;99930.88;7395120;19;20045;-69
2022/04/01 10:29:49;;;;;;;4.40;2.15;;;;;;;6.07;30.43;99927.31;7398104;19;20019;-69
2022/04/01 10:32:29;;;;;;;5.07;2.42;;;;;;;6.14;29.96;99924.56;7395498;19;20018;-65
2022/04/01 10:35:00;;;;;;;4.00;2.60;;;;;;;6.25;30.22;99923.53;7394958;19;20465;-65
2022/04/01 10:37:30;;;;;;;8.80;3.30;;;;;;;6.28;29.57;99921.72;7397324;19;20018;-65
2022/04/01 10:40:00;;;;;;;6.07;2.50;;;;;;;6.32;29.11;99918.19;7397867;19;20026;-66
2022/04/01 10:42:34;;;;;;;5.30;2.50;;;;;;;6.34;29.11;99931.16;7395518;19;20015;-65
2022/04/01 10:45:05;;;;;;;6.47;2.78;;;;;;;6.37;29.43;99931.13;7395909;19;20135;-65
2022/04/01 10:53:45;;;;;;;5.03;2.65;;;;;;;6.44;27.78;99921.44;7393470;19;20019;-64
2022/04/01 10:56:36;;;;;;;4.20;2.30;;;;;;;6.55;26.75;99923.88;7395327;19;20109;-66
2022/04/01 10:59:18;;;;;;;4.05;2.30;;;;;;;6.66;26.56;99909.75;7394520;19;20484;-67
2022/04/01 11:02:06;;;;;;;4.80;2.00;;;;;;;6.75;26.11;99924.34;7397216;19;20035;-66
2022/04/01 11:04:36;;;;;;;5.88;2.20;;;;;;;6.82;27.60;99917.25;7394826;19;20034;-66
2022/04/01 11:07:06;;;;;;;8.88;2.50;;;;;;;6.88;26.86;99911.94;7393639;19;20023;-67
2022/04/01 11:09:39;;;;;;;7.85;2.30;;;;;;;6.93;25.35;99912.69;7395077;19;20084;-67
2022/04/01 11:12:27;;;;;;;6.82;2.10;;;;;;;7.01;25.22;99910.81;7396362;19;20079;-67
2022/04/01 11:15:25;;;;;;;6.45;2.63;;;;;;;7.11;26.25;99911.44;7393888;19;20041;-67
2022/04/01 11:18:10;;;;;;;9.10;2.88;;;;;;;7.22;27.35;99932.13;7394381;19;20510;-67
2022/04/01 11:20:40;;;;;;;4.30;2.55;;;;;;;7.32;28.15;99928.41;7393847;19;20054;-65
2022/04/01 11:23:13;;;;;;;8.50;3.85;;;;;;;7.38;27.43;99930.03;7392771;19;20014;-67
2022/04/01 11:25:58;;;;;;;4.30;2.78;;;;;;;7.44;26.79;99918.59;7394859;19;20018;-65
2022/04/01 11:28:28;;;;;;;5.22;2.83;;;;;;;7.48;27.37;99915.91;7394897;19;20014;-66
2022/04/01 11:31:10;;;;;;;4.40;2.40;;;;;;;7.52;26.50;99916.69;7394423;19;20114;-66
2022/04/01 11:33:39;;;;;;;6.35;2.95;;;;;;;7.54;27.45;99921.88;7395336;19;20026;-67
2022/04/01 11:36:08;;;;;;;4.70;2.53;;;;;;;7.57;27.14;99912.22;7393130;19;20014;-66
2022/04/01 11:38:38;;;;;;;9.10;2.85;;;;;;;7.59;27.28;99917.41;7392121;19;20019;-67
2022/04/01 11:41:06;;;;;;;5.38;2.70;;;;;;;7.61;27.12;99924.31;7393687;19;20037;-68
2022/04/01 11:43:36;;;;;;;9.82;2.53;;;;;;;7.68;26.70;99911.13;7394046;19;20021;-67
2022/04/01 11:46:09;;;;;;;4.40;2.30;;;;;;;7.74;26.74;99913.59;7395721;19;20021;-67
2022/04/01 11:48:39;;;;;;;5.18;2.25;;;;;;;7.78;26.06;99913.47;7396118;19;20041;-67
2022/04/01 11:51:10;;;;;;;4.97;2.45;;;;;;;7.83;26.01;99921.19;7393632;19;20018;-66
2022/04/01 11:53:42;;;;;;;5.22;2.35;;;;;;;7.88;25.90;99921.94;7394954;19;20035;-67
2022/04/01 11:56:12;;;;;;;6.57;2.58;;;;;;;7.86;24.20;99910.69;7395430;19;20022;-68
2022/04/01 11:58:56;;;;;;;5.32;1.90;;;;;;;7.81;24.05;99912.56;7393609;19;20019;-68
2022/04/01 12:01:29;;;;;;;4.35;2.42;;;;;;;7.84;23.63;99899.41;7394102;19;20018;-68
2022/04/01 12:04:09;;;;;;;6.63;2.28;;;;;;;7.86;23.48;99910.69;7394215;19;20035;-67
2022/04/01 12:09:19;;;;;;;4.25;2.05;;;;;;;7.77;23.87;99903.06;7395209;19;20010;-67
2022/04/01 12:11:48;;;;;;;3.10;2.10;;;;;;;7.79;24.06;99911.72;7394757;19;20029;-68
2022/04/01 12:14:24;;;;;;;3.08;1.90;;;;;;;7.72;23.47;99911.03;7392602;19;20110;-67
2022/04/01 12:16:55;;;;;;;6.65;1.90;;;;;;;7.66;23.72;99901.56;7393094;19;20015;-67